sensor_id;sensor_type;location;lat;lon;timestamp;temperature;humidity
28460;DHT22;32528;45.712;9.192;2023-07-29T00:01:59;21.60;97.70
28460;DHT22;32528;45.712;9.192;2023-07-29T00:03:59;21.60;97.90
28460;DHT22;32528;45.712;9.192;2023-07-29T00:06:00;21.60;98.10
28460;DHT22;32528;45.712;9.192;2023-07-29T00:08:01;21.50;98.10
28460;DHT22;32528;45.712;9.192;2023-07-29T00:10:02;21.50;98.30
28460;DHT22;32528;45.712;9.192;2023-07-29T00:12:04;21.50;98.40
28460;DHT22;32528;45.712;9.192;2023-07-29T00:14:05;21.40;98.40
28460;DHT22;32528;45.712;9.192;2023-07-29T00:16:05;21.40;98.60
28460;DHT22;32528;45.712;9.192;2023-07-29T00:18:06;21.40;98.60
28460;DHT22;32528;45.712;9.192;2023-07-29T00:20:07;21.40;98.70
28460;DHT22;32528;45.712;9.192;2023-07-29T00:22:08;21.40;98.70
28460;DHT22;32528;45.712;9.192;2023-07-29T00:24:09;21.40;98.80
28460;DHT22;32528;45.712;9.192;2023-07-29T00:26:09;21.30;99.00
28460;DHT22;32528;45.712;9.192;2023-07-29T00:28:11;21.30;99.10
28460;DHT22;32528;45.712;9.192;2023-07-29T00:30:12;21.30;99.30
28460;DHT22;32528;45.712;9.192;2023-07-29T00:32:13;21.30;99.30
28460;DHT22;32528;45.712;9.192;2023-07-29T00:34:14;21.30;99.40
28460;DHT22;32528;45.712;9.192;2023-07-29T00:36:19;21.20;99.50
28460;DHT22;32528;45.712;9.192;2023-07-29T00:38:20;21.20;99.60
28460;DHT22;32528;45.712;9.192;2023-07-29T00:40:22;21.20;99.70
28460;DHT22;32528;45.712;9.192;2023-07-29T00:42:23;21.20;99.90
28460;DHT22;32528;45.712;9.192;2023-07-29T00:44:24;21.20;99.90
28460;DHT22;32528;45.712;9.192;2023-07-29T00:46:25;21.20;99.90
28460;DHT22;32528;45.712;9.192;2023-07-29T00:48:28;21.10;99.90
28460;DHT22;32528;45.712;9.192;2023-07-29T00:50:31;21.10;99.90
28460;DHT22;32528;45.712;9.192;2023-07-29T00:52:34;21.10;99.90
28460;DHT22;32528;45.712;9.192;2023-07-29T00:54:35;21.00;99.90
28460;DHT22;32528;45.712;9.192;2023-07-29T00:56:37;21.00;99.90
28460;DHT22;32528;45.712;9.192;2023-07-29T00:58:38;21.00;99.90
28460;DHT22;32528;45.712;9.192;2023-07-29T01:00:40;21.10;99.90
28460;DHT22;32528;45.712;9.192;2023-07-29T01:02:42;21.10;99.90
28460;DHT22;32528;45.712;9.192;2023-07-29T01:04:42;21.10;99.90
28460;DHT22;32528;45.712;9.192;2023-07-29T01:09:02;21.20;99.90
28460;DHT22;32528;45.712;9.192;2023-07-29T01:17:37;21.30;99.90
28460;DHT22;32528;45.712;9.192;2023-07-29T01:21:41;21.10;99.90
28460;DHT22;32528;45.712;9.192;2023-07-29T01:23:42;21.00;99.90
28460;DHT22;32528;45.712;9.192;2023-07-29T01:25:44;21.00;99.90
28460;DHT22;32528;45.712;9.192;2023-07-29T01:27:46;20.90;99.90
28460;DHT22;32528;45.712;9.192;2023-07-29T01:29:47;20.90;99.90
28460;DHT22;32528;45.712;9.192;2023-07-29T01:31:52;21.00;99.90
28460;DHT22;32528;45.712;9.192;2023-07-29T01:34:01;21.00;99.90
28460;DHT22;32528;45.712;9.192;2023-07-29T01:36:11;21.00;99.90
28460;DHT22;32528;45.712;9.192;2023-07-29T01:38:14;21.00;99.90
28460;DHT22;32528;45.712;9.192;2023-07-29T01:40:18;21.00;99.90
28460;DHT22;32528;45.712;9.192;2023-07-29T01:42:19;20.90;99.90
28460;DHT22;32528;45.712;9.192;2023-07-29T01:44:20;21.00;99.90
28460;DHT22;32528;45.712;9.192;2023-07-29T01:46:21;21.00;99.90
28460;DHT22;32528;45.712;9.192;2023-07-29T01:48:22;21.10;99.90
28460;DHT22;32528;45.712;9.192;2023-07-29T01:50:24;21.10;99.90
28460;DHT22;32528;45.712;9.192;2023-07-29T01:52:25;21.10;99.90
28460;DHT22;32528;45.712;9.192;2023-07-29T01:54:26;21.10;99.90
28460;DHT22;32528;45.712;9.192;2023-07-29T01:56:26;21.00;99.90
28460;DHT22;32528;45.712;9.192;2023-07-29T01:58:29;21.00;99.90
28460;DHT22;32528;45.712;9.192;2023-07-29T02:00:30;20.90;99.90
28460;DHT22;32528;45.712;9.192;2023-07-29T02:02:31;20.90;99.90
28460;DHT22;32528;45.712;9.192;2023-07-29T02:04:34;21.00;99.90
28460;DHT22;32528;45.712;9.192;2023-07-29T02:06:35;21.00;99.90
28460;DHT22;32528;45.712;9.192;2023-07-29T02:08:35;21.00;99.90
28460;DHT22;32528;45.712;9.192;2023-07-29T02:10:37;21.00;99.90
28460;DHT22;32528;45.712;9.192;2023-07-29T02:12:38;20.90;99.90
28460;DHT22;32528;45.712;9.192;2023-07-29T02:14:38;20.90;99.90
28460;DHT22;32528;45.712;9.192;2023-07-29T02:16:39;20.90;99.90
28460;DHT22;32528;45.712;9.192;2023-07-29T02:18:40;20.90;99.90
28460;DHT22;32528;45.712;9.192;2023-07-29T02:20:41;20.90;99.90
28460;DHT22;32528;45.712;9.192;2023-07-29T02:22:43;20.90;99.90
28460;DHT22;32528;45.712;9.192;2023-07-29T02:24:44;21.00;99.90
28460;DHT22;32528;45.712;9.192;2023-07-29T02:26:45;21.00;99.90
28460;DHT22;32528;45.712;9.192;2023-07-29T02:28:46;21.00;99.80
28460;DHT22;32528;45.712;9.192;2023-07-29T02:30:47;21.00;99.90
28460;DHT22;32528;45.712;9.192;2023-07-29T02:32:50;20.90;99.90
28460;DHT22;32528;45.712;9.192;2023-07-29T02:34:50;20.90;99.90
28460;DHT22;32528;45.712;9.192;2023-07-29T02:36:51;20.80;99.90
28460;DHT22;32528;45.712;9.192;2023-07-29T02:38:52;20.80;99.90
28460;DHT22;32528;45.712;9.192;2023-07-29T02:40:53;20.80;99.90
28460;DHT22;32528;45.712;9.192;2023-07-29T02:42:54;20.80;99.90
28460;DHT22;32528;45.712;9.192;2023-07-29T02:44:54;20.80;99.90
28460;DHT22;32528;45.712;9.192;2023-07-29T02:46:55;20.70;99.90
28460;DHT22;32528;45.712;9.192;2023-07-29T02:48:56;20.70;99.90
28460;DHT22;32528;45.712;9.192;2023-07-29T02:51:03;20.70;99.90
28460;DHT22;32528;45.712;9.192;2023-07-29T02:53:04;20.70;99.90
28460;DHT22;32528;45.712;9.192;2023-07-29T02:55:05;20.80;99.90
28460;DHT22;32528;45.712;9.192;2023-07-29T02:57:06;20.80;99.90
28460;DHT22;32528;45.712;9.192;2023-07-29T02:59:07;20.80;99.90
28460;DHT22;32528;45.712;9.192;2023-07-29T03:01:08;20.80;99.90
28460;DHT22;32528;45.712;9.192;2023-07-29T03:03:08;21.00;99.90
28460;DHT22;32528;45.712;9.192;2023-07-29T03:05:09;20.90;99.90
28460;DHT22;32528;45.712;9.192;2023-07-29T03:07:10;21.00;99.90
28460;DHT22;32528;45.712;9.192;2023-07-29T03:09:12;21.00;99.90
28460;DHT22;32528;45.712;9.192;2023-07-29T03:11:14;20.90;99.90
28460;DHT22;32528;45.712;9.192;2023-07-29T03:13:15;21.00;99.90
28460;DHT22;32528;45.712;9.192;2023-07-29T03:15:16;20.90;99.90
28460;DHT22;32528;45.712;9.192;2023-07-29T03:17:17;21.00;99.90
28460;DHT22;32528;45.712;9.192;2023-07-29T03:19:18;20.90;99.90
28460;DHT22;32528;45.712;9.192;2023-07-29T03:21:20;20.90;99.90
28460;DHT22;32528;45.712;9.192;2023-07-29T03:23:21;20.90;99.90
28460;DHT22;32528;45.712;9.192;2023-07-29T03:25:22;20.90;99.90
28460;DHT22;32528;45.712;9.192;2023-07-29T03:27:23;20.90;99.90
28460;DHT22;32528;45.712;9.192;2023-07-29T03:29:24;20.90;99.90
28460;DHT22;32528;45.712;9.192;2023-07-29T03:31:25;20.80;99.90
28460;DHT22;32528;45.712;9.192;2023-07-29T03:33:26;20.80;99.90
28460;DHT22;32528;45.712;9.192;2023-07-29T03:35:27;20.90;99.90
28460;DHT22;32528;45.712;9.192;2023-07-29T03:37:27;20.80;99.90
28460;DHT22;32528;45.712;9.192;2023-07-29T03:39:28;20.80;99.90
28460;DHT22;32528;45.712;9.192;2023-07-29T03:41:29;20.80;99.90
28460;DHT22;32528;45.712;9.192;2023-07-29T03:43:30;20.70;99.90
28460;DHT22;32528;45.712;9.192;2023-07-29T03:45:33;20.60;99.90
28460;DHT22;32528;45.712;9.192;2023-07-29T03:47:34;20.60;99.90
28460;DHT22;32528;45.712;9.192;2023-07-29T03:49:35;20.60;99.90
28460;DHT22;32528;45.712;9.192;2023-07-29T03:51:37;20.70;99.90
28460;DHT22;32528;45.712;9.192;2023-07-29T03:53:37;20.60;99.90
28460;DHT22;32528;45.712;9.192;2023-07-29T03:55:38;20.60;99.90
28460;DHT22;32528;45.712;9.192;2023-07-29T03:57:39;20.60;99.90
28460;DHT22;32528;45.712;9.192;2023-07-29T03:59:40;20.60;99.90
28460;DHT22;32528;45.712;9.192;2023-07-29T04:01:40;20.70;99.90
28460;DHT22;32528;45.712;9.192;2023-07-29T04:03:41;20.70;99.90
28460;DHT22;32528;45.712;9.192;2023-07-29T04:05:42;20.70;99.90
28460;DHT22;32528;45.712;9.192;2023-07-29T04:07:43;20.70;99.90
28460;DHT22;32528;45.712;9.192;2023-07-29T04:09:44;20.70;99.90
28460;DHT22;32528;45.712;9.192;2023-07-29T04:11:45;20.70;99.90
28460;DHT22;32528;45.712;9.192;2023-07-29T04:13:46;20.70;99.90
28460;DHT22;32528;45.712;9.192;2023-07-29T04:15:46;20.70;99.90
28460;DHT22;32528;45.712;9.192;2023-07-29T04:17:47;20.80;99.90
28460;DHT22;32528;45.712;9.192;2023-07-29T04:19:48;20.80;99.90
28460;DHT22;32528;45.712;9.192;2023-07-29T04:21:49;20.80;99.90
28460;DHT22;32528;45.712;9.192;2023-07-29T04:23:51;20.90;99.90
28460;DHT22;32528;45.712;9.192;2023-07-29T04:25:52;20.80;99.90
28460;DHT22;32528;45.712;9.192;2023-07-29T04:27:53;20.90;99.90
28460;DHT22;32528;45.712;9.192;2023-07-29T04:29:53;20.90;99.90
28460;DHT22;32528;45.712;9.192;2023-07-29T04:31:54;20.90;99.90
28460;DHT22;32528;45.712;9.192;2023-07-29T04:33:55;20.90;99.90
28460;DHT22;32528;45.712;9.192;2023-07-29T04:35:56;20.90;99.90
28460;DHT22;32528;45.712;9.192;2023-07-29T04:37:56;20.90;99.90
28460;DHT22;32528;45.712;9.192;2023-07-29T04:39:57;21.00;99.90
28460;DHT22;32528;45.712;9.192;2023-07-29T04:41:58;21.00;99.90
28460;DHT22;32528;45.712;9.192;2023-07-29T04:43:59;21.00;99.90
28460;DHT22;32528;45.712;9.192;2023-07-29T04:46:00;21.10;99.90
28460;DHT22;32528;45.712;9.192;2023-07-29T04:48:01;21.10;99.90
28460;DHT22;32528;45.712;9.192;2023-07-29T04:50:02;21.10;99.90
28460;DHT22;32528;45.712;9.192;2023-07-29T04:52:04;21.20;99.90
28460;DHT22;32528;45.712;9.192;2023-07-29T04:54:05;21.20;99.90
28460;DHT22;32528;45.712;9.192;2023-07-29T04:56:06;21.30;99.90
28460;DHT22;32528;45.712;9.192;2023-07-29T04:58:06;21.30;99.90
28460;DHT22;32528;45.712;9.192;2023-07-29T05:00:07;21.30;99.90
28460;DHT22;32528;45.712;9.192;2023-07-29T05:02:08;21.30;99.90
28460;DHT22;32528;45.712;9.192;2023-07-29T05:04:09;21.30;99.90
28460;DHT22;32528;45.712;9.192;2023-07-29T05:06:10;21.40;99.90
28460;DHT22;32528;45.712;9.192;2023-07-29T05:08:11;21.50;99.90
28460;DHT22;32528;45.712;9.192;2023-07-29T05:10:12;21.50;99.90
28460;DHT22;32528;45.712;9.192;2023-07-29T05:12:13;21.60;99.90
28460;DHT22;32528;45.712;9.192;2023-07-29T05:14:14;21.60;99.90
28460;DHT22;32528;45.712;9.192;2023-07-29T05:16:16;21.70;99.90
28460;DHT22;32528;45.712;9.192;2023-07-29T05:18:17;21.80;99.90
28460;DHT22;32528;45.712;9.192;2023-07-29T05:20:18;21.90;99.80
28460;DHT22;32528;45.712;9.192;2023-07-29T05:22:19;21.90;99.60
28460;DHT22;32528;45.712;9.192;2023-07-29T05:24:19;22.00;99.60
28460;DHT22;32528;45.712;9.192;2023-07-29T05:26:20;22.10;99.50
28460;DHT22;32528;45.712;9.192;2023-07-29T05:28:21;22.10;99.30
28460;DHT22;32528;45.712;9.192;2023-07-29T05:30:21;22.30;99.30
28460;DHT22;32528;45.712;9.192;2023-07-29T05:32:23;22.30;99.10
28460;DHT22;32528;45.712;9.192;2023-07-29T05:34:23;22.40;99.10
28460;DHT22;32528;45.712;9.192;2023-07-29T05:36:24;22.50;99.00
28460;DHT22;32528;45.712;9.192;2023-07-29T05:38:26;22.50;98.80
28460;DHT22;32528;45.712;9.192;2023-07-29T05:40:26;22.60;98.70
28460;DHT22;32528;45.712;9.192;2023-07-29T05:42:27;22.70;98.60
28460;DHT22;32528;45.712;9.192;2023-07-29T05:44:28;22.70;98.40
28460;DHT22;32528;45.712;9.192;2023-07-29T05:46:31;22.80;98.40
28460;DHT22;32528;45.712;9.192;2023-07-29T05:48:31;22.80;98.30
28460;DHT22;32528;45.712;9.192;2023-07-29T05:50:33;22.80;98.10
28460;DHT22;32528;45.712;9.192;2023-07-29T05:52:35;22.80;98.20
28460;DHT22;32528;45.712;9.192;2023-07-29T05:54:36;22.80;98.20
28460;DHT22;32528;45.712;9.192;2023-07-29T05:56:36;22.80;98.20
28460;DHT22;32528;45.712;9.192;2023-07-29T05:58:37;22.90;98.30
28460;DHT22;32528;45.712;9.192;2023-07-29T06:00:38;23.00;98.20
28460;DHT22;32528;45.712;9.192;2023-07-29T06:02:40;23.10;98.20
28460;DHT22;32528;45.712;9.192;2023-07-29T06:04:48;23.20;98.10
28460;DHT22;32528;45.712;9.192;2023-07-29T06:06:48;23.40;97.90
28460;DHT22;32528;45.712;9.192;2023-07-29T06:08:50;23.50;97.70
28460;DHT22;32528;45.712;9.192;2023-07-29T06:10:50;23.60;97.60
28460;DHT22;32528;45.712;9.192;2023-07-29T06:12:51;23.70;97.50
28460;DHT22;32528;45.712;9.192;2023-07-29T06:14:52;23.90;97.40
28460;DHT22;32528;45.712;9.192;2023-07-29T06:16:53;24.00;97.20
28460;DHT22;32528;45.712;9.192;2023-07-29T06:18:54;24.10;97.10
28460;DHT22;32528;45.712;9.192;2023-07-29T06:20:54;24.10;97.10
28460;DHT22;32528;45.712;9.192;2023-07-29T06:22:55;24.20;96.90
28460;DHT22;32528;45.712;9.192;2023-07-29T06:24:56;24.30;96.80
28460;DHT22;32528;45.712;9.192;2023-07-29T06:27:02;24.50;96.60
28460;DHT22;32528;45.712;9.192;2023-07-29T06:29:03;24.50;96.50
28460;DHT22;32528;45.712;9.192;2023-07-29T06:31:04;24.50;96.60
28460;DHT22;32528;45.712;9.192;2023-07-29T06:33:05;24.60;96.40
28460;DHT22;32528;45.712;9.192;2023-07-29T06:35:06;24.60;96.20
28460;DHT22;32528;45.712;9.192;2023-07-29T06:37:06;24.70;96.00
28460;DHT22;32528;45.712;9.192;2023-07-29T06:39:07;24.70;95.90
28460;DHT22;32528;45.712;9.192;2023-07-29T06:41:08;24.80;96.00
28460;DHT22;32528;45.712;9.192;2023-07-29T06:43:09;24.80;95.80
28460;DHT22;32528;45.712;9.192;2023-07-29T06:45:09;24.80;95.90
28460;DHT22;32528;45.712;9.192;2023-07-29T06:47:10;24.90;95.90
28460;DHT22;32528;45.712;9.192;2023-07-29T06:49:11;25.00;95.60
28460;DHT22;32528;45.712;9.192;2023-07-29T06:51:12;25.10;95.40
28460;DHT22;32528;45.712;9.192;2023-07-29T06:53:13;25.20;95.30
28460;DHT22;32528;45.712;9.192;2023-07-29T06:55:13;25.40;95.10
28460;DHT22;32528;45.712;9.192;2023-07-29T06:57:14;25.50;95.30
28460;DHT22;32528;45.712;9.192;2023-07-29T06:59:15;25.60;94.70
28460;DHT22;32528;45.712;9.192;2023-07-29T07:01:15;25.60;94.50
28460;DHT22;32528;45.712;9.192;2023-07-29T07:03:16;25.70;94.90
28460;DHT22;32528;45.712;9.192;2023-07-29T07:05:19;25.70;94.60
28460;DHT22;32528;45.712;9.192;2023-07-29T07:07:20;25.80;94.80
28460;DHT22;32528;45.712;9.192;2023-07-29T07:09:21;25.90;94.70
28460;DHT22;32528;45.712;9.192;2023-07-29T07:11:22;26.00;94.30
28460;DHT22;32528;45.712;9.192;2023-07-29T07:13:22;25.90;94.10
28460;DHT22;32528;45.712;9.192;2023-07-29T07:15:23;26.00;94.10
28460;DHT22;32528;45.712;9.192;2023-07-29T07:17:24;26.20;94.00
28460;DHT22;32528;45.712;9.192;2023-07-29T07:19:25;26.40;93.80
28460;DHT22;32528;45.712;9.192;2023-07-29T07:21:25;26.50;93.60
28460;DHT22;32528;45.712;9.192;2023-07-29T07:23:26;26.80;93.30
28460;DHT22;32528;45.712;9.192;2023-07-29T07:25:27;27.00;92.90
28460;DHT22;32528;45.712;9.192;2023-07-29T07:27:27;27.20;92.80
28460;DHT22;32528;45.712;9.192;2023-07-29T07:29:28;27.20;92.10
28460;DHT22;32528;45.712;9.192;2023-07-29T07:31:33;27.50;91.90
28460;DHT22;32528;45.712;9.192;2023-07-29T07:33:34;27.60;91.70
28460;DHT22;32528;45.712;9.192;2023-07-29T07:35:35;27.70;91.60
28460;DHT22;32528;45.712;9.192;2023-07-29T07:37:36;27.70;91.50
28460;DHT22;32528;45.712;9.192;2023-07-29T07:39:36;27.80;91.60
28460;DHT22;32528;45.712;9.192;2023-07-29T07:41:37;27.70;91.40
28460;DHT22;32528;45.712;9.192;2023-07-29T07:43:38;27.90;91.60
28460;DHT22;32528;45.712;9.192;2023-07-29T07:45:39;27.80;91.40
28460;DHT22;32528;45.712;9.192;2023-07-29T07:47:39;27.70;91.30
28460;DHT22;32528;45.712;9.192;2023-07-29T07:49:40;27.50;91.30
28460;DHT22;32528;45.712;9.192;2023-07-29T07:51:41;27.30;91.50
28460;DHT22;32528;45.712;9.192;2023-07-29T07:53:43;27.50;91.30
28460;DHT22;32528;45.712;9.192;2023-07-29T07:55:44;27.70;91.30
28460;DHT22;32528;45.712;9.192;2023-07-29T07:57:45;27.80;91.10
28460;DHT22;32528;45.712;9.192;2023-07-29T07:59:46;28.10;90.80
28460;DHT22;32528;45.712;9.192;2023-07-29T08:01:47;28.10;90.60
28460;DHT22;32528;45.712;9.192;2023-07-29T08:03:48;28.00;90.70
28460;DHT22;32528;45.712;9.192;2023-07-29T08:05:49;28.20;90.40
28460;DHT22;32528;45.712;9.192;2023-07-29T08:07:50;28.20;90.10
28460;DHT22;32528;45.712;9.192;2023-07-29T08:09:51;28.30;90.20
28460;DHT22;32528;45.712;9.192;2023-07-29T08:11:52;28.40;90.30
28460;DHT22;32528;45.712;9.192;2023-07-29T08:13:52;28.40;90.20
28460;DHT22;32528;45.712;9.192;2023-07-29T08:15:53;28.50;90.10
28460;DHT22;32528;45.712;9.192;2023-07-29T08:17:54;28.60;89.70
28460;DHT22;32528;45.712;9.192;2023-07-29T08:19:54;28.60;89.30
28460;DHT22;32528;45.712;9.192;2023-07-29T08:21:55;28.50;89.10
28460;DHT22;32528;45.712;9.192;2023-07-29T08:23:56;28.50;89.70
28460;DHT22;32528;45.712;9.192;2023-07-29T08:25:58;28.50;89.20
28460;DHT22;32528;45.712;9.192;2023-07-29T08:28:02;28.20;89.20
28460;DHT22;32528;45.712;9.192;2023-07-29T08:30:03;28.20;88.90
28460;DHT22;32528;45.712;9.192;2023-07-29T08:32:04;28.10;89.10
28460;DHT22;32528;45.712;9.192;2023-07-29T08:34:05;28.00;88.70
28460;DHT22;32528;45.712;9.192;2023-07-29T08:36:06;27.90;89.30
28460;DHT22;32528;45.712;9.192;2023-07-29T08:38:07;28.00;89.60
28460;DHT22;32528;45.712;9.192;2023-07-29T08:40:08;28.20;89.00
28460;DHT22;32528;45.712;9.192;2023-07-29T08:42:11;28.30;89.10
28460;DHT22;32528;45.712;9.192;2023-07-29T08:44:24;28.10;88.60
28460;DHT22;32528;45.712;9.192;2023-07-29T08:46:28;28.20;89.30
28460;DHT22;32528;45.712;9.192;2023-07-29T08:48:33;28.00;88.50
28460;DHT22;32528;45.712;9.192;2023-07-29T08:50:37;27.90;88.80
28460;DHT22;32528;45.712;9.192;2023-07-29T08:52:38;28.00;89.50
28460;DHT22;32528;45.712;9.192;2023-07-29T08:54:39;28.00;89.40
28460;DHT22;32528;45.712;9.192;2023-07-29T08:56:43;28.00;89.60
28460;DHT22;32528;45.712;9.192;2023-07-29T08:58:44;28.10;90.00
28460;DHT22;32528;45.712;9.192;2023-07-29T09:00:46;28.00;89.80
28460;DHT22;32528;45.712;9.192;2023-07-29T09:02:48;28.00;89.40
28460;DHT22;32528;45.712;9.192;2023-07-29T09:04:48;27.80;89.50
28460;DHT22;32528;45.712;9.192;2023-07-29T09:06:51;27.80;90.00
28460;DHT22;32528;45.712;9.192;2023-07-29T09:08:53;27.90;90.00
28460;DHT22;32528;45.712;9.192;2023-07-29T09:10:55;28.00;88.80
28460;DHT22;32528;45.712;9.192;2023-07-29T09:12:56;28.00;89.10
28460;DHT22;32528;45.712;9.192;2023-07-29T09:14:57;28.00;88.80
28460;DHT22;32528;45.712;9.192;2023-07-29T09:16:57;28.00;88.20
28460;DHT22;32528;45.712;9.192;2023-07-29T09:19:01;27.90;88.60
28460;DHT22;32528;45.712;9.192;2023-07-29T09:21:02;28.10;88.30
28460;DHT22;32528;45.712;9.192;2023-07-29T09:23:03;28.10;88.60
28460;DHT22;32528;45.712;9.192;2023-07-29T09:25:04;28.10;87.90
28460;DHT22;32528;45.712;9.192;2023-07-29T09:27:06;28.00;88.20
28460;DHT22;32528;45.712;9.192;2023-07-29T09:29:07;28.20;88.70
28460;DHT22;32528;45.712;9.192;2023-07-29T09:31:19;28.30;87.80
28460;DHT22;32528;45.712;9.192;2023-07-29T09:33:20;28.30;86.20
28460;DHT22;32528;45.712;9.192;2023-07-29T09:35:20;28.30;87.20
28460;DHT22;32528;45.712;9.192;2023-07-29T09:37:22;28.20;87.80
28460;DHT22;32528;45.712;9.192;2023-07-29T09:39:23;28.00;87.90
28460;DHT22;32528;45.712;9.192;2023-07-29T09:41:26;28.00;88.30
28460;DHT22;32528;45.712;9.192;2023-07-29T09:43:31;28.20;88.70
28460;DHT22;32528;45.712;9.192;2023-07-29T09:45:34;28.10;87.60
28460;DHT22;32528;45.712;9.192;2023-07-29T09:47:35;28.20;87.70
28460;DHT22;32528;45.712;9.192;2023-07-29T09:49:36;28.20;87.30
28460;DHT22;32528;45.712;9.192;2023-07-29T09:51:38;28.50;86.90
28460;DHT22;32528;45.712;9.192;2023-07-29T09:53:44;28.70;86.70
28460;DHT22;32528;45.712;9.192;2023-07-29T09:55:48;28.90;86.70
28460;DHT22;32528;45.712;9.192;2023-07-29T09:57:58;29.00;86.30
28460;DHT22;32528;45.712;9.192;2023-07-29T10:00:05;29.00;85.20
28460;DHT22;32528;45.712;9.192;2023-07-29T10:02:15;29.10;85.60
28460;DHT22;32528;45.712;9.192;2023-07-29T10:04:17;29.30;84.60
28460;DHT22;32528;45.712;9.192;2023-07-29T10:06:18;29.20;84.90
28460;DHT22;32528;45.712;9.192;2023-07-29T10:08:19;29.10;83.80
28460;DHT22;32528;45.712;9.192;2023-07-29T10:10:20;29.20;84.40
28460;DHT22;32528;45.712;9.192;2023-07-29T10:12:21;29.30;84.40
28460;DHT22;32528;45.712;9.192;2023-07-29T10:14:23;29.50;84.30
28460;DHT22;32528;45.712;9.192;2023-07-29T10:16:24;29.70;84.20
28460;DHT22;32528;45.712;9.192;2023-07-29T10:18:26;30.00;82.90
28460;DHT22;32528;45.712;9.192;2023-07-29T10:20:27;30.20;81.90
28460;DHT22;32528;45.712;9.192;2023-07-29T10:22:37;30.50;81.80
28460;DHT22;32528;45.712;9.192;2023-07-29T10:24:38;30.50;79.70
28460;DHT22;32528;45.712;9.192;2023-07-29T10:26:44;30.80;80.50
28460;DHT22;32528;45.712;9.192;2023-07-29T10:28:47;30.90;79.20
28460;DHT22;32528;45.712;9.192;2023-07-29T10:30:48;30.70;79.70
28460;DHT22;32528;45.712;9.192;2023-07-29T10:32:52;30.60;80.10
28460;DHT22;32528;45.712;9.192;2023-07-29T10:34:53;30.50;79.20
28460;DHT22;32528;45.712;9.192;2023-07-29T10:36:54;30.40;80.80
28460;DHT22;32528;45.712;9.192;2023-07-29T10:38:55;30.20;81.20
28460;DHT22;32528;45.712;9.192;2023-07-29T10:40:57;30.30;81.00
28460;DHT22;32528;45.712;9.192;2023-07-29T10:43:10;30.10;81.00
28460;DHT22;32528;45.712;9.192;2023-07-29T10:45:18;30.00;81.10
28460;DHT22;32528;45.712;9.192;2023-07-29T10:47:26;30.30;81.20
28460;DHT22;32528;45.712;9.192;2023-07-29T10:49:27;30.20;80.10
28460;DHT22;32528;45.712;9.192;2023-07-29T10:51:36;30.00;80.40
28460;DHT22;32528;45.712;9.192;2023-07-29T10:53:37;30.10;80.10
28460;DHT22;32528;45.712;9.192;2023-07-29T10:55:38;30.10;81.00
28460;DHT22;32528;45.712;9.192;2023-07-29T10:57:39;29.90;81.80
28460;DHT22;32528;45.712;9.192;2023-07-29T10:59:56;29.80;82.20
28460;DHT22;32528;45.712;9.192;2023-07-29T11:01:58;30.00;81.50
28460;DHT22;32528;45.712;9.192;2023-07-29T11:04:28;30.20;80.50
28460;DHT22;32528;45.712;9.192;2023-07-29T11:11:50;30.40;79.30
28460;DHT22;32528;45.712;9.192;2023-07-29T11:13:51;30.00;81.50
28460;DHT22;32528;45.712;9.192;2023-07-29T11:15:54;29.70;81.10
28460;DHT22;32528;45.712;9.192;2023-07-29T11:17:57;29.60;81.20
28460;DHT22;32528;45.712;9.192;2023-07-29T11:20:03;29.40;80.70
28460;DHT22;32528;45.712;9.192;2023-07-29T11:22:04;29.50;80.50
28460;DHT22;32528;45.712;9.192;2023-07-29T11:24:05;29.40;81.10
28460;DHT22;32528;45.712;9.192;2023-07-29T11:26:07;29.00;81.40
28460;DHT22;32528;45.712;9.192;2023-07-29T11:28:07;29.10;83.20
28460;DHT22;32528;45.712;9.192;2023-07-29T11:30:10;29.20;84.40
28460;DHT22;32528;45.712;9.192;2023-07-29T11:32:11;29.40;83.40
28460;DHT22;32528;45.712;9.192;2023-07-29T11:34:12;29.60;82.30
28460;DHT22;32528;45.712;9.192;2023-07-29T11:36:18;29.90;81.90
28460;DHT22;32528;45.712;9.192;2023-07-29T11:38:21;30.10;81.00
28460;DHT22;32528;45.712;9.192;2023-07-29T11:40:22;30.20;80.50
28460;DHT22;32528;45.712;9.192;2023-07-29T11:42:24;30.20;81.00
28460;DHT22;32528;45.712;9.192;2023-07-29T11:44:25;30.30;81.90
28460;DHT22;32528;45.712;9.192;2023-07-29T11:46:26;30.50;81.50
28460;DHT22;32528;45.712;9.192;2023-07-29T11:48:33;30.50;79.50
28460;DHT22;32528;45.712;9.192;2023-07-29T11:50:35;30.30;78.90
28460;DHT22;32528;45.712;9.192;2023-07-29T11:52:40;30.30;79.40
28460;DHT22;32528;45.712;9.192;2023-07-29T11:54:41;30.20;78.50
28460;DHT22;32528;45.712;9.192;2023-07-29T11:56:42;30.40;78.80
28460;DHT22;32528;45.712;9.192;2023-07-29T11:58:43;30.70;79.00
28460;DHT22;32528;45.712;9.192;2023-07-29T12:00:44;30.70;79.40
28460;DHT22;32528;45.712;9.192;2023-07-29T12:02:47;30.50;79.50
28460;DHT22;32528;45.712;9.192;2023-07-29T12:04:49;30.30;80.10
28460;DHT22;32528;45.712;9.192;2023-07-29T12:06:50;30.10;80.30
28460;DHT22;32528;45.712;9.192;2023-07-29T12:08:51;30.30;79.30
28460;DHT22;32528;45.712;9.192;2023-07-29T12:10:52;30.40;79.20
28460;DHT22;32528;45.712;9.192;2023-07-29T12:12:53;30.60;80.60
28460;DHT22;32528;45.712;9.192;2023-07-29T12:14:54;30.80;78.80
28460;DHT22;32528;45.712;9.192;2023-07-29T12:16:55;30.80;79.50
28460;DHT22;32528;45.712;9.192;2023-07-29T12:19:00;31.00;79.00
28460;DHT22;32528;45.712;9.192;2023-07-29T12:21:01;31.00;79.50
28460;DHT22;32528;45.712;9.192;2023-07-29T12:23:02;31.00;78.40
28460;DHT22;32528;45.712;9.192;2023-07-29T12:25:05;31.10;78.30
28460;DHT22;32528;45.712;9.192;2023-07-29T12:27:13;31.10;77.80
28460;DHT22;32528;45.712;9.192;2023-07-29T12:29:17;30.90;78.10
28460;DHT22;32528;45.712;9.192;2023-07-29T12:31:20;31.00;79.90
28460;DHT22;32528;45.712;9.192;2023-07-29T12:33:34;30.90;78.60
28460;DHT22;32528;45.712;9.192;2023-07-29T12:35:36;31.10;79.10
28460;DHT22;32528;45.712;9.192;2023-07-29T12:37:37;31.20;80.90
28460;DHT22;32528;45.712;9.192;2023-07-29T12:39:42;31.30;79.10
28460;DHT22;32528;45.712;9.192;2023-07-29T12:41:43;31.40;79.40
28460;DHT22;32528;45.712;9.192;2023-07-29T12:43:44;31.30;77.70
28460;DHT22;32528;45.712;9.192;2023-07-29T12:45:45;31.40;78.90
28460;DHT22;32528;45.712;9.192;2023-07-29T12:47:46;31.60;78.10
28460;DHT22;32528;45.712;9.192;2023-07-29T12:49:47;31.80;77.40
28460;DHT22;32528;45.712;9.192;2023-07-29T12:51:48;31.50;77.60
28460;DHT22;32528;45.712;9.192;2023-07-29T12:53:49;31.60;76.90
28460;DHT22;32528;45.712;9.192;2023-07-29T12:55:49;31.60;77.10
28460;DHT22;32528;45.712;9.192;2023-07-29T12:57:50;31.80;77.30
28460;DHT22;32528;45.712;9.192;2023-07-29T12:59:51;32.20;76.30
28460;DHT22;32528;45.712;9.192;2023-07-29T13:01:52;32.20;75.60
28460;DHT22;32528;45.712;9.192;2023-07-29T13:03:53;32.40;75.10
28460;DHT22;32528;45.712;9.192;2023-07-29T13:05:54;32.70;74.70